KMSO

Missoula International Airport

Missoula, Montana, USA
KMSO 182109Z 1821/1918 14012G22KT P6SM -RA OVC040 FM182200 23012KT P6SM -SHRA BKN025 OVC040 FM190100 30012G22KT P6SM -SHRA SCT025 OVC035
Issued Valid From Valid To
Dec-18 @ 21:09 UTC
(2 hours ago)
Dec-18 @ 21:00 UTC
(3 hours ago)
Dec-19 @ 18:00 UTC
(in 18 hours)
Expired Click to View Dec-18 @ 21:00 to Dec-18 @ 22:00
KMSO 182109Z 1821/1918 14012G22KT P6SM -RA OVC040
Wind Visibility Clouds Conditions
140° at 12 knots
 Gusting to 22 knots
Greater than 6 miles
  • Overcast at 4,000' AGL
  • Light Rain
From Dec-18 @ 22:00 to Dec-19 @ 01:00
FM182200 23012KT P6SM -SHRA BKN025 OVC040
Wind Visibility Clouds Conditions
230° at 12 knots Greater than 6 miles
  • Broken at 2,500' AGL
  • Overcast at 4,000' AGL
  • Light Rain
From Dec-19 @ 01:00 to Dec-19 @ 18:00
FM190100 30012G22KT P6SM -SHRA SCT025 OVC035
Wind Visibility Clouds Conditions
300° at 12 knots
 Gusting to 22 knots
Greater than 6 miles
  • Scattered at 2,500' AGL
  • Overcast at 3,500' AGL
  • Light Rain
KMSO 182109Z 1821/1918 14012G22KT P6SM -RA OVC040 FM182200 23012KT P6SM -SHRA BKN025 OVC040 FM190100 30012G22KT P6SM -SHRA SCT025 OVC035
Issued Dec-18 @ 21:09 UTC
(2 hours ago)
Valid From Dec-18 @ 21:00 UTC
(3 hours ago)
Valid To Dec-19 @ 18:00 UTC
(in 18 hours)
Dec-18 @ 21:00 - Dec-18 @ 22:00
Wind Visibility
140° at 12 knots
 Gusting to 22 knots
Greater than 6 miles
Clouds
  • Overcast at 4,000' AGL
Conditions
  • Light Rain
From Dec-18 @ 22:00 - Dec-19 @ 01:00
Wind Visibility
230° at 12 knots Greater than 6 miles
Clouds
  • Broken at 2,500' AGL
  • Overcast at 4,000' AGL
Conditions
  • Light Rain
From Dec-19 @ 01:00 - Dec-19 @ 18:00
Wind Visibility
300° at 12 knots
 Gusting to 22 knots
Greater than 6 miles
Clouds
  • Scattered at 2,500' AGL
  • Overcast at 3,500' AGL
Conditions
  • Light Rain